createdAt,value
2023-04-15T00:00:00.257Z,100.00
2023-04-15T00:02:30.854Z,100.00
2023-04-15T00:05:04.159Z,100.00
2023-04-15T00:07:48.143Z,100.00
2023-04-15T00:10:32.991Z,100.00
2023-04-15T00:13:04.953Z,100.00
2023-04-15T00:15:33.011Z,100.00
2023-04-15T00:18:33.897Z,100.00
2023-04-15T00:21:12.153Z,100.00
2023-04-15T00:23:42.864Z,100.00
2023-04-15T00:26:13.937Z,100.00
2023-04-15T00:28:44.930Z,100.00
2023-04-15T00:31:17.878Z,100.00
2023-04-15T00:33:47.523Z,100.00
2023-04-15T00:36:19.912Z,100.00
2023-04-15T00:38:54.216Z,100.00
2023-04-15T00:41:30.860Z,100.00
2023-04-15T00:44:05.139Z,100.00
2023-04-15T00:46:37.877Z,100.00
2023-04-15T00:49:15.009Z,100.00
2023-04-15T00:51:48.300Z,100.00
2023-04-15T00:54:20.416Z,100.00
2023-04-15T00:56:53.713Z,100.00
2023-04-15T00:59:24.890Z,100.00
2023-04-15T01:01:53.703Z,100.00
2023-04-15T01:04:26.315Z,100.00
2023-04-15T01:06:54.473Z,100.00
2023-04-15T01:09:22.541Z,100.00
2023-04-15T01:11:55.226Z,100.00
2023-04-15T01:14:24.057Z,100.00
2023-04-15T01:16:57.291Z,100.00
2023-04-15T01:19:26.911Z,100.00
2023-04-15T01:21:58.486Z,100.00
2023-04-15T01:24:28.930Z,100.00
2023-04-15T01:26:58.604Z,100.00
2023-04-15T01:29:29.342Z,100.00
2023-04-15T01:31:59.129Z,100.00
2023-04-15T01:34:32.145Z,100.00
2023-04-15T01:37:04.006Z,100.00
2023-04-15T01:39:32.268Z,100.00
2023-04-15T01:42:06.629Z,100.00
2023-04-15T01:44:37.438Z,100.00
2023-04-15T01:47:05.802Z,100.00
2023-04-15T01:49:43.083Z,100.00
2023-04-15T01:52:14.463Z,100.00
2023-04-15T01:54:46.639Z,100.00
2023-04-15T01:57:14.790Z,100.00
2023-04-15T01:59:42.912Z,100.00
2023-04-15T02:02:30.281Z,100.00
2023-04-15T02:04:59.545Z,100.00
2023-04-15T02:07:33.952Z,100.00
2023-04-15T02:10:04.937Z,100.00
2023-04-15T02:12:35.759Z,100.00
2023-04-15T02:15:05.584Z,100.00
2023-04-15T02:17:38.088Z,100.00
2023-04-15T02:20:21.435Z,100.00
2023-04-15T02:22:52.227Z,100.00
2023-04-15T02:25:20.701Z,100.00
2023-04-15T02:27:53.501Z,100.00
2023-04-15T02:30:24.137Z,100.00
2023-04-15T02:32:54.180Z,100.00
2023-04-15T02:35:29.006Z,100.00
2023-04-15T02:38:08.356Z,100.00
2023-04-15T02:40:42.420Z,100.00
2023-04-15T02:43:10.811Z,100.00
2023-04-15T02:45:43.635Z,100.00
2023-04-15T02:48:18.163Z,100.00
2023-04-15T02:50:48.234Z,100.00
2023-04-15T02:53:19.409Z,100.00
2023-04-15T02:55:47.529Z,100.00
2023-04-15T02:58:16.019Z,100.00
2023-04-15T03:00:44.091Z,100.00
2023-04-15T03:03:15.491Z,100.00
2023-04-15T03:05:46.884Z,100.00
2023-04-15T03:08:23.348Z,100.00
2023-04-15T03:10:52.687Z,100.00
2023-04-15T03:13:21.872Z,100.00
2023-04-15T03:15:50.005Z,100.00
2023-04-15T03:18:18.209Z,100.00
2023-04-15T03:20:46.866Z,100.00
2023-04-15T03:23:15.568Z,100.00
2023-04-15T03:25:45.304Z,100.00
2023-04-15T03:28:13.482Z,100.00
2023-04-15T03:30:41.977Z,100.00
2023-04-15T03:33:11.107Z,100.00
2023-04-15T03:35:39.418Z,100.00
2023-04-15T03:38:07.537Z,100.00
2023-04-15T03:40:35.639Z,100.00
2023-04-15T03:43:03.577Z,100.00
2023-04-15T03:45:31.764Z,100.00
2023-04-15T03:48:11.466Z,100.00
2023-04-15T03:50:44.015Z,100.00
2023-04-15T03:53:15.181Z,100.00
2023-04-15T03:55:43.697Z,100.00
2023-04-15T03:58:13.121Z,100.00
2023-04-15T04:00:41.629Z,100.00
2023-04-15T04:03:10.029Z,100.00
2023-04-15T04:05:39.148Z,100.00
2023-04-15T04:08:07.689Z,100.00
2023-04-15T04:10:36.038Z,100.00
2023-04-15T04:13:04.193Z,100.00
2023-04-15T04:15:32.526Z,100.00
2023-04-15T04:18:00.878Z,100.00
2023-04-15T04:20:29.076Z,100.00
2023-04-15T04:22:57.117Z,100.00
2023-04-15T04:25:25.861Z,100.00
2023-04-15T04:27:53.946Z,100.00
2023-04-15T04:30:22.305Z,100.00
2023-04-15T04:32:53.635Z,100.00
2023-04-15T04:35:22.001Z,100.00
2023-04-15T04:37:52.168Z,100.00
2023-04-15T04:40:20.827Z,100.00
2023-04-15T04:42:49.076Z,100.00
2023-04-15T04:45:17.342Z,100.00
2023-04-15T04:47:45.607Z,100.00
2023-04-15T04:50:17.128Z,100.00
2023-04-15T04:52:45.174Z,100.00
2023-04-15T04:55:13.298Z,100.00
2023-04-15T04:57:41.420Z,100.00
2023-04-15T05:00:09.736Z,100.00
2023-04-15T05:02:37.869Z,100.00
2023-04-15T05:05:06.697Z,100.00
2023-04-15T05:07:34.648Z,100.00
2023-04-15T05:10:02.728Z,100.00
2023-04-15T05:12:30.837Z,100.00
2023-04-15T05:14:58.950Z,100.00
2023-04-15T05:17:27.449Z,100.00
2023-04-15T05:19:55.975Z,100.00
2023-04-15T05:22:24.057Z,100.00
2023-04-15T05:24:52.045Z,100.00
2023-04-15T05:27:20.120Z,100.00
2023-04-15T05:29:48.444Z,100.00
2023-04-15T05:32:17.175Z,100.00
2023-04-15T05:34:45.550Z,100.00
2023-04-15T05:37:13.594Z,100.00
2023-04-15T05:39:42.425Z,100.00
2023-04-15T05:42:10.802Z,100.00
2023-04-15T05:44:38.862Z,100.00
2023-04-15T05:47:08.078Z,100.00
2023-04-15T05:49:36.544Z,100.00
2023-04-15T05:52:04.681Z,100.00
2023-04-15T05:54:32.972Z,100.00
2023-04-15T05:57:01.910Z,100.00
2023-04-15T05:59:30.126Z,100.00
2023-04-15T06:01:58.310Z,100.00
2023-04-15T06:04:26.507Z,100.00
2023-04-15T06:06:54.874Z,100.00
2023-04-15T06:09:23.045Z,100.00
2023-04-15T06:11:52.210Z,100.00
2023-04-15T06:14:20.416Z,100.00
2023-04-15T06:16:48.701Z,100.00
2023-04-15T06:19:16.807Z,100.00
2023-04-15T06:21:45.645Z,100.00
2023-04-15T06:24:13.696Z,100.00
2023-04-15T06:26:41.767Z,100.00
2023-04-15T06:29:10.481Z,100.00
2023-04-15T06:31:38.610Z,100.00
2023-04-15T06:34:06.822Z,100.00
2023-04-15T06:36:37.756Z,100.00
2023-04-15T06:39:05.845Z,100.00
2023-04-15T06:41:34.376Z,99.78
2023-04-15T06:44:02.733Z,99.78
2023-04-15T06:46:30.849Z,99.04
2023-04-15T06:48:59.092Z,96.88
2023-04-15T06:51:27.832Z,97.11
2023-04-15T06:53:57.036Z,96.37
2023-04-15T06:56:25.094Z,93.95
2023-04-15T06:58:53.102Z,92.78
2023-04-15T07:01:21.525Z,93.38
2023-04-15T07:03:52.585Z,93.54
2023-04-15T07:06:21.961Z,93.26
2023-04-15T07:08:50.461Z,92.37
2023-04-15T07:11:18.500Z,91.05
2023-04-15T07:13:46.753Z,90.56
2023-04-15T07:16:14.934Z,91.51
2023-04-15T07:18:44.715Z,90.24
2023-04-15T07:21:15.208Z,88.67
2023-04-15T07:23:43.248Z,87.91
2023-04-15T07:26:11.412Z,87.87
2023-04-15T07:28:56.646Z,88.19
2023-04-15T07:31:25.172Z,86.97
2023-04-15T07:33:56.139Z,86.46
2023-04-15T07:36:24.695Z,86.60
2023-04-15T07:38:52.987Z,87.00
2023-04-15T07:41:34.491Z,86.21
2023-04-15T07:44:09.357Z,85.85
2023-04-15T07:46:40.231Z,86.13
2023-04-15T07:49:11.150Z,86.08
2023-04-15T07:51:41.803Z,85.40
2023-04-15T07:54:10.251Z,84.98
2023-04-15T07:56:40.243Z,84.97
2023-04-15T07:59:12.026Z,83.78
2023-04-15T08:01:40.530Z,83.86
2023-04-15T08:04:09.383Z,83.03
2023-04-15T08:06:40.160Z,82.46
2023-04-15T08:09:18.562Z,81.08
2023-04-15T08:11:49.602Z,80.35
2023-04-15T08:14:18.211Z,80.07
2023-04-15T08:16:49.742Z,79.63
2023-04-15T08:19:18.172Z,79.62
2023-04-15T08:21:46.864Z,78.72
2023-04-15T08:24:15.789Z,79.17
2023-04-15T08:26:44.325Z,79.15
2023-04-15T08:29:17.060Z,78.66
2023-04-15T08:31:50.505Z,75.84
2023-04-15T08:34:21.382Z,75.82
2023-04-15T08:36:53.876Z,76.53
2023-04-15T08:39:24.477Z,76.17
2023-04-15T08:42:07.386Z,76.72
2023-04-15T08:44:49.479Z,76.89
2023-04-15T08:47:22.941Z,76.80
2023-04-15T08:49:54.369Z,76.08
2023-04-15T08:52:26.870Z,75.67
2023-04-15T08:55:05.503Z,75.81
2023-04-15T08:57:37.142Z,75.51
2023-04-15T09:00:06.949Z,74.66
2023-04-15T09:02:36.190Z,74.36
2023-04-15T09:05:11.742Z,74.21
2023-04-15T09:07:40.110Z,69.18
2023-04-15T09:10:11.918Z,66.20
2023-04-15T09:12:42.709Z,66.65
2023-04-15T09:15:24.700Z,66.65
2023-04-15T09:17:56.311Z,65.98
2023-04-15T09:20:24.896Z,66.03
2023-04-15T09:22:55.804Z,66.81
2023-04-15T09:25:36.024Z,66.61
2023-04-15T09:28:04.808Z,65.38
2023-04-15T09:30:33.556Z,64.83
2023-04-15T09:33:08.785Z,64.69
2023-04-15T09:35:37.361Z,63.14
2023-04-15T09:38:10.196Z,62.16
2023-04-15T09:40:41.359Z,61.33
2023-04-15T09:43:13.231Z,61.54
2023-04-15T09:45:48.909Z,61.80
2023-04-15T09:48:21.335Z,61.17
2023-04-15T09:50:50.591Z,60.73
2023-04-15T09:53:20.858Z,59.37
2023-04-15T09:55:52.145Z,58.98
2023-04-15T09:58:25.745Z,58.33
2023-04-15T10:01:02.051Z,58.15
2023-04-15T10:03:40.511Z,58.19
2023-04-15T10:06:10.447Z,58.30
2023-04-15T10:08:39.283Z,58.36
2023-04-15T10:11:08.171Z,58.92
2023-04-15T10:13:38.318Z,58.82
2023-04-15T10:16:07.229Z,57.46
2023-04-15T10:18:45.910Z,56.57
2023-04-15T10:21:22.077Z,56.87
2023-04-15T10:24:02.034Z,51.39
2023-04-15T10:26:43.861Z,47.88
2023-04-15T10:29:18.947Z,47.83
2023-04-15T10:31:57.035Z,47.21
2023-04-15T10:34:29.721Z,47.40
2023-04-15T10:37:36.311Z,47.10
2023-04-15T10:40:30.507Z,46.15
2023-04-15T10:43:07.353Z,46.73
2023-04-15T10:45:50.071Z,46.35
2023-04-15T10:48:33.828Z,46.72
2023-04-15T10:51:05.994Z,47.59
2023-04-15T10:54:00.167Z,47.79
2023-04-15T10:56:36.874Z,48.57
2023-04-15T10:59:05.809Z,49.23
2023-04-15T11:01:56.529Z,50.11
2023-04-15T11:07:52.360Z,49.81
2023-04-15T11:10:28.108Z,49.25
2023-04-15T11:13:03.830Z,48.56
2023-04-15T11:15:40.464Z,48.77
2023-04-15T11:18:10.382Z,48.45
2023-04-15T11:21:04.214Z,48.16
2023-04-15T11:23:54.594Z,47.91
2023-04-15T11:26:35.996Z,48.51
2023-04-15T11:29:05.592Z,48.21
2023-04-15T11:31:34.044Z,47.54
2023-04-15T11:34:04.807Z,46.52
2023-04-15T11:36:33.224Z,46.64
2023-04-15T11:39:01.667Z,46.59
2023-04-15T11:41:30.480Z,46.49
2023-04-15T11:43:58.988Z,46.40
2023-04-15T11:46:32.083Z,46.59
2023-04-15T11:49:02.840Z,46.30
2023-04-15T11:51:35.238Z,45.30
2023-04-15T11:54:04.278Z,45.50
2023-04-15T11:57:04.788Z,45.71
2023-04-15T11:59:45.839Z,45.98
2023-04-15T12:02:14.840Z,46.07
2023-04-15T12:04:43.678Z,45.97
2023-04-15T12:07:12.845Z,46.64
2023-04-15T12:09:41.340Z,47.10
2023-04-15T12:12:14.599Z,46.35
2023-04-15T12:14:43.595Z,45.53
2023-04-15T12:17:15.518Z,45.40
2023-04-15T12:19:51.313Z,44.42
2023-04-15T12:22:22.350Z,44.06
2023-04-15T12:24:57.909Z,44.51
2023-04-15T12:27:29.718Z,44.65
2023-04-15T12:30:11.944Z,44.72
2023-04-15T12:32:42.107Z,45.16
2023-04-15T12:35:11.576Z,45.15
2023-04-15T12:37:39.774Z,45.36
2023-04-15T12:40:09.305Z,45.89
2023-04-15T12:42:38.207Z,46.32
2023-04-15T12:45:07.161Z,45.57
2023-04-15T12:47:38.810Z,45.37
2023-04-15T12:50:07.714Z,44.92
2023-04-15T12:52:36.029Z,44.16
2023-04-15T12:55:04.463Z,43.55
2023-04-15T12:57:37.815Z,43.12
2023-04-15T13:00:20.345Z,43.19
2023-04-15T13:02:57.976Z,42.96
2023-04-15T13:05:26.772Z,43.77
2023-04-15T13:07:54.972Z,44.25
2023-04-15T13:11:10.522Z,44.40
2023-04-15T13:13:44.086Z,44.31
2023-04-15T13:16:12.228Z,44.62
2023-04-15T13:18:40.886Z,45.40
2023-04-15T13:21:14.691Z,45.78
2023-04-15T13:23:43.050Z,44.72
2023-04-15T13:26:11.550Z,44.54
2023-04-15T13:28:46.028Z,44.88
2023-04-15T13:31:14.604Z,45.24
2023-04-15T13:33:52.433Z,45.73
2023-04-15T13:36:28.801Z,45.53
2023-04-15T13:39:00.828Z,45.79
2023-04-15T13:42:06.635Z,46.05
2023-04-15T13:44:38.762Z,45.11
2023-04-15T13:47:14.824Z,44.52
2023-04-15T13:49:54.552Z,43.68
2023-04-15T13:52:23.653Z,43.41
2023-04-15T13:55:19.477Z,43.28
2023-04-15T13:57:55.096Z,43.65
2023-04-15T14:00:48.307Z,43.53
2023-04-15T14:03:46.161Z,43.68
2023-04-15T14:06:28.956Z,44.43
2023-04-15T14:09:06.241Z,45.51
2023-04-15T14:11:37.099Z,46.02
2023-04-15T14:14:08.433Z,46.13
2023-04-15T14:16:42.350Z,46.27
2023-04-15T14:19:13.061Z,46.68
2023-04-15T14:21:42.095Z,46.72
2023-04-15T14:24:24.864Z,46.25
2023-04-15T14:26:57.661Z,46.37
2023-04-15T14:29:26.270Z,46.63
2023-04-15T14:32:08.562Z,46.44
2023-04-15T14:34:42.711Z,46.61
2023-04-15T14:37:13.897Z,46.67
2023-04-15T14:39:47.426Z,46.36
2023-04-15T14:42:29.631Z,46.49
2023-04-15T14:45:23.572Z,46.76
2023-04-15T14:48:23.547Z,47.56
2023-04-15T14:50:52.491Z,48.32
2023-04-15T14:56:16.096Z,49.49
2023-04-15T14:58:44.688Z,50.11
2023-04-15T15:01:16.144Z,51.07
2023-04-15T15:06:32.215Z,52.04
2023-04-15T15:09:10.010Z,52.58
2023-04-15T15:11:39.844Z,53.33
2023-04-15T15:14:08.337Z,53.44
2023-04-15T15:16:37.730Z,52.98
2023-04-15T15:19:06.179Z,53.17
2023-04-15T15:21:35.103Z,53.25
2023-04-15T15:24:03.673Z,53.03
2023-04-15T15:26:33.839Z,53.11
2023-04-15T15:29:05.699Z,53.29
2023-04-15T15:31:39.550Z,53.34
2023-04-15T15:34:11.152Z,53.65
2023-04-15T15:36:54.297Z,53.81
2023-04-15T15:39:23.994Z,54.20
2023-04-15T15:41:56.082Z,54.35
2023-04-15T15:44:24.540Z,54.17
2023-04-15T15:46:57.803Z,54.17
2023-04-15T15:49:28.409Z,54.34
2023-04-15T15:51:57.189Z,54.52
2023-04-15T15:54:32.884Z,54.86
2023-04-15T15:57:02.323Z,54.89
2023-04-15T15:59:33.415Z,55.26
2023-04-15T16:02:04.800Z,55.27
2023-04-15T16:04:36.652Z,55.37
2023-04-15T16:07:12.859Z,55.50
2023-04-15T16:10:01.784Z,55.67
2023-04-15T16:12:35.061Z,55.97
2023-04-15T16:15:04.445Z,56.09
2023-04-15T16:17:36.479Z,56.28
2023-04-15T16:20:12.199Z,56.59
2023-04-15T16:22:48.400Z,56.81
2023-04-15T16:25:23.542Z,57.03
2023-04-15T16:28:03.453Z,57.07
2023-04-15T16:30:41.683Z,57.24
2023-04-15T16:33:10.015Z,57.20
2023-04-15T16:35:38.196Z,57.47
2023-04-15T16:38:09.424Z,57.77
2023-04-15T16:40:40.728Z,58.09
2023-04-15T16:43:11.526Z,58.08
2023-04-15T16:45:39.742Z,58.39
2023-04-15T16:48:08.031Z,58.72
2023-04-15T16:50:39.270Z,58.86
2023-04-15T16:53:08.151Z,58.97
2023-04-15T16:55:36.524Z,58.95
2023-04-15T16:58:05.998Z,59.17
2023-04-15T17:00:37.076Z,59.19
2023-04-15T17:03:06.318Z,59.45
2023-04-15T17:05:34.866Z,59.58
2023-04-15T17:08:03.280Z,59.67
2023-04-15T17:10:31.720Z,59.82
2023-04-15T17:12:59.917Z,59.88
2023-04-15T17:15:28.143Z,60.02
2023-04-15T17:17:56.461Z,60.31
2023-04-15T17:20:24.945Z,60.64
2023-04-15T17:22:53.366Z,60.76
2023-04-15T17:25:24.098Z,61.03
2023-04-15T17:27:52.505Z,61.57
2023-04-15T17:30:21.904Z,61.79
2023-04-15T17:32:51.814Z,62.16
2023-04-15T17:35:26.404Z,62.17
2023-04-15T17:37:54.671Z,62.43
2023-04-15T17:40:22.980Z,63.02
2023-04-15T17:42:51.191Z,63.20
2023-04-15T17:45:20.826Z,63.38
2023-04-15T17:47:49.121Z,63.37
2023-04-15T17:50:17.688Z,63.90
2023-04-15T17:52:48.444Z,64.12
2023-04-15T17:55:16.840Z,64.04
2023-04-15T17:57:46.442Z,64.26
2023-04-15T18:00:14.878Z,64.56
2023-04-15T18:02:43.355Z,64.81
2023-04-15T18:05:12.114Z,65.41
2023-04-15T18:07:41.203Z,65.50
2023-04-15T18:10:09.599Z,66.27
2023-04-15T18:12:38.162Z,67.64
2023-04-15T18:15:06.870Z,68.53
2023-04-15T18:17:35.847Z,69.47
2023-04-15T18:20:04.238Z,69.74
2023-04-15T18:22:32.372Z,71.11
2023-04-15T18:25:04.288Z,71.85
2023-04-15T18:27:33.861Z,73.04
2023-04-15T18:30:01.962Z,72.97
2023-04-15T18:32:33.438Z,72.97
2023-04-15T18:35:02.075Z,73.60
2023-04-15T18:37:30.405Z,73.59
2023-04-15T18:39:59.086Z,73.57
2023-04-15T18:42:27.557Z,73.74
2023-04-15T18:44:56.204Z,74.29
2023-04-15T18:47:36.763Z,74.62
2023-04-15T18:50:05.395Z,75.56
2023-04-15T18:52:34.306Z,76.96
2023-04-15T18:55:03.466Z,78.24
2023-04-15T18:57:34.816Z,78.83
2023-04-15T19:00:04.818Z,79.18
2023-04-15T19:02:33.041Z,79.86
2023-04-15T19:05:04.390Z,81.25
2023-04-15T19:07:32.936Z,83.14
2023-04-15T19:10:01.346Z,84.84
2023-04-15T19:12:29.533Z,84.68
2023-04-15T19:14:57.925Z,84.75
2023-04-15T19:17:26.703Z,84.64
2023-04-15T19:19:55.038Z,84.09
2023-04-15T19:22:23.403Z,84.58
2023-04-15T19:24:52.193Z,84.20
2023-04-15T19:27:20.474Z,85.12
2023-04-15T19:29:48.519Z,86.10
2023-04-15T19:32:16.768Z,86.45
2023-04-15T19:34:44.885Z,86.06
2023-04-15T19:37:15.029Z,87.14
2023-04-15T19:39:44.274Z,87.98
2023-04-15T19:42:12.984Z,87.42
2023-04-15T19:44:42.947Z,88.30
2023-04-15T19:47:11.848Z,88.48
2023-04-15T19:49:40.814Z,88.48
2023-04-15T19:52:08.819Z,88.61
2023-04-15T19:54:37.118Z,88.33
2023-04-15T19:57:05.441Z,89.65
2023-04-15T19:59:33.633Z,89.87
2023-04-15T20:02:01.786Z,89.36
2023-04-15T20:04:30.095Z,89.12
2023-04-15T20:06:58.159Z,89.55
2023-04-15T20:09:26.270Z,90.21
2023-04-15T20:12:48.132Z,89.95
2023-04-15T20:14:42.318Z,90.32
2023-04-15T20:17:10.433Z,90.17
2023-04-15T20:19:48.197Z,91.26
2023-04-15T20:22:16.572Z,91.71
2023-04-15T20:24:44.696Z,92.11
2023-04-15T20:27:12.718Z,92.72
2023-04-15T20:29:40.872Z,92.74
2023-04-15T20:32:11.660Z,92.86
2023-04-15T20:34:42.551Z,93.02
2023-04-15T20:37:12.441Z,93.51
2023-04-15T20:39:42.135Z,94.04
2023-04-15T20:42:10.644Z,94.13
2023-04-15T20:44:38.849Z,94.26
2023-04-15T20:47:07.536Z,94.20
2023-04-15T20:49:39.929Z,93.82
2023-04-15T20:52:09.087Z,94.32
2023-04-15T20:54:37.146Z,94.20
2023-04-15T20:57:05.184Z,94.10
2023-04-15T20:59:34.876Z,95.17
2023-04-15T21:02:03.102Z,95.78
2023-04-15T21:04:31.323Z,95.91
2023-04-15T21:06:59.388Z,95.66
2023-04-15T21:09:30.416Z,95.73
2023-04-15T21:12:01.557Z,96.27
2023-04-15T21:14:30.214Z,96.39
2023-04-15T21:16:58.372Z,96.45
2023-04-15T21:19:26.620Z,96.27
2023-04-15T21:21:54.783Z,96.77
2023-04-15T21:24:22.689Z,97.13
2023-04-15T21:26:50.680Z,97.23
2023-04-15T21:29:18.804Z,97.56
2023-04-15T21:31:46.793Z,97.52
2023-04-15T21:34:14.898Z,98.15
2023-04-15T21:36:43.063Z,98.82
2023-04-15T21:39:11.363Z,99.86
2023-04-15T21:41:39.325Z,99.90
2023-04-15T21:44:07.353Z,100.00
2023-04-15T21:46:36.246Z,100.00
2023-04-15T21:49:06.397Z,100.00
2023-04-15T21:51:34.818Z,100.00
2023-04-15T21:54:03.113Z,100.00
2023-04-15T21:56:32.567Z,100.00
2023-04-15T21:59:00.708Z,100.00
2023-04-15T22:01:28.928Z,100.00
2023-04-15T22:03:57.145Z,100.00
2023-04-15T22:06:25.470Z,100.00
2023-04-15T22:08:57.381Z,100.00
2023-04-15T22:11:27.635Z,100.00
2023-04-15T22:13:57.615Z,100.00
2023-04-15T22:16:26.747Z,100.00
2023-04-15T22:18:56.123Z,100.00
2023-04-15T22:21:24.508Z,100.00
2023-04-15T22:23:53.237Z,100.00
2023-04-15T22:26:51.106Z,100.00
2023-04-15T22:29:19.264Z,100.00
2023-04-15T22:31:47.500Z,100.00
2023-04-15T22:34:20.753Z,100.00
2023-04-15T22:36:50.819Z,100.00
2023-04-15T22:39:20.473Z,100.00
2023-04-15T22:41:49.741Z,100.00
2023-04-15T22:44:18.145Z,100.00
2023-04-15T22:46:46.365Z,100.00
2023-04-15T22:49:14.395Z,100.00
2023-04-15T22:51:42.495Z,100.00
2023-04-15T22:54:10.918Z,100.00
2023-04-15T22:56:40.215Z,100.00
2023-04-15T22:59:14.545Z,100.00
2023-04-15T23:01:42.593Z,100.00
2023-04-15T23:04:26.233Z,100.00
2023-04-15T23:06:57.824Z,100.00
2023-04-15T23:09:26.482Z,100.00
2023-04-15T23:11:56.348Z,100.00
2023-04-15T23:14:26.255Z,100.00
2023-04-15T23:16:54.836Z,100.00
2023-04-15T23:19:23.336Z,100.00
2023-04-15T23:21:53.935Z,100.00
2023-04-15T23:24:24.573Z,100.00
2023-04-15T23:26:57.331Z,100.00
2023-04-15T23:29:25.721Z,100.00
2023-04-15T23:31:59.827Z,100.00
2023-04-15T23:34:39.955Z,100.00
2023-04-15T23:37:07.995Z,100.00
2023-04-15T23:39:36.358Z,100.00
2023-04-15T23:42:04.500Z,100.00
2023-04-15T23:44:32.599Z,100.00
2023-04-15T23:47:00.676Z,100.00
2023-04-15T23:49:28.862Z,100.00
2023-04-15T23:51:57.606Z,100.00
2023-04-15T23:54:25.659Z,100.00
2023-04-15T23:56:53.854Z,100.00
2023-04-15T23:59:21.888Z,100.00
